Time;durP1;ratioP1;P1;durP2;ratioP2;P2;SDS_P1;SDS_P2;PMS_P1;PMS_P2;Temp;Humidity;BMP_temperature;BMP_pressure;BME280_temperature;BME280_humidity;BME280_pressure;Samples;Min_cycle;Max_cycle;Signal;HPM_P1;HPM_P2
2021/01/30 00:01:24;;;;;;;4.70;2.10;;;20.80;74.70;;;;;;5012236;28;95749;-45
2021/01/30 00:03:54;;;;;;;2.10;1.90;;;20.80;74.60;;;;;;5018669;28;96555;-44
2021/01/30 00:06:25;;;;;;;3.92;1.77;;;20.80;74.60;;;;;;5017409;28;95505;-44
2021/01/30 00:08:56;;;;;;;4.53;1.80;;;20.80;74.50;;;;;;5028195;28;95757;-46
2021/01/30 00:11:28;;;;;;;14.18;2.17;;;20.80;75.30;;;;;;5019141;28;95875;-47
2021/01/30 00:13:58;;;;;;;;;;;20.80;74.60;;;;;;5011738;27;102576;-45
2021/01/30 00:16:29;;;;;;;3.92;2.60;;;20.80;74.70;;;;;;5018905;27;95832;-46
2021/01/30 00:19:01;;;;;;;;;;;20.80;74.80;;;;;;5027370;28;95418;-45
2021/01/30 00:21:32;;;;;;;2.30;2.10;;;20.70;75.50;;;;;;5011589;28;95272;-45
2021/01/30 00:24:02;;;;;;;3.03;2.17;;;20.70;74.90;;;;;;5023232;28;96248;-46
2021/01/30 00:26:33;;;;;;;3.85;2.10;;;20.70;74.90;;;;;;4988212;28;97813;-47
2021/01/30 00:29:05;;;;;;;4.40;2.50;;;20.70;74.90;;;;;;5020466;27;95935;-46
2021/01/30 00:31:35;;;;;;;;;;;20.70;74.90;;;;;;4998363;28;95721;-44
2021/01/30 00:34:06;;;;;;;4.70;2.00;;;20.70;74.90;;;;;;5017991;28;95817;-45
2021/01/30 00:36:39;;;;;;;4.00;2.03;;;20.80;74.80;;;;;;5007708;27;95835;-45
2021/01/30 00:39:08;;;;;;;4.25;2.35;;;20.80;74.80;;;;;;4998671;28;95921;-46
2021/01/30 00:41:38;;;;;;;5.32;2.05;;;20.70;74.70;;;;;;5009376;28;95723;-45
2021/01/30 00:44:07;;;;;;;3.35;2.17;;;20.80;74.90;;;;;;5014424;28;96034;-45
2021/01/30 00:46:37;;;;;;;3.10;2.10;;;20.80;74.80;;;;;;5015506;28;95631;-46
2021/01/30 00:49:08;;;;;;;5.73;2.63;;;20.80;74.90;;;;;;5015408;28;95383;-45
2021/01/30 00:51:39;;;;;;;5.68;2.75;;;20.80;74.90;;;;;;5021157;28;96048;-44
2021/01/30 00:54:09;;;;;;;4.15;2.13;;;20.80;74.80;;;;;;4999623;28;96224;-46
2021/01/30 00:56:40;;;;;;;3.55;2.40;;;20.80;74.90;;;;;;4995186;28;96281;-45
2021/01/30 00:59:10;;;;;;;3.03;2.00;;;20.80;75.00;;;;;;5004030;28;95837;-46
2021/01/30 01:01:42;;;;;;;3.53;2.50;;;20.80;75.00;;;;;;5004672;28;95896;-46
2021/01/30 01:04:21;;;;;;;2.50;2.30;;;20.90;75.00;;;;;;4990343;28;98152;-45
2021/01/30 01:06:52;;;;;;;3.78;2.50;;;20.90;75.00;;;;;;4999323;27;98410;-47
2021/01/30 01:09:23;;;;;;;2.50;2.30;;;20.90;75.00;;;;;;4996915;28;95938;-46
2021/01/30 01:11:53;;;;;;;;;;;20.90;75.00;;;;;;5006068;27;96071;-46
2021/01/30 01:14:26;;;;;;;5.90;2.30;;;20.90;75.00;;;;;;5006067;27;96425;-45
2021/01/30 01:16:56;;;;;;;4.32;2.33;;;20.90;75.00;;;;;;5007067;28;95682;-45
2021/01/30 01:19:28;;;;;;;3.72;2.03;;;20.90;75.00;;;;;;5003658;28;95322;-45
2021/01/30 01:21:59;;;;;;;3.55;2.22;;;20.90;74.90;;;;;;5021618;28;95646;-48
2021/01/30 01:24:29;;;;;;;3.20;2.33;;;20.90;74.90;;;;;;5000750;27;95804;-45
2021/01/30 01:27:01;;;;;;;3.08;2.22;;;20.90;75.00;;;;;;5009266;28;95912;-46
2021/01/30 01:29:32;;;;;;;3.13;2.10;;;20.90;74.90;;;;;;5006714;27;96200;-46
2021/01/30 01:32:03;;;;;;;3.97;2.30;;;20.90;74.90;;;;;;5009324;28;96726;-46
2021/01/30 01:34:34;;;;;;;4.47;1.90;;;21.00;74.90;;;;;;5001506;27;96363;-46
2021/01/30 01:37:06;;;;;;;2.90;2.60;;;21.00;74.80;;;;;;5008643;28;97065;-46
2021/01/30 01:39:35;;;;;;;5.32;2.03;;;21.00;74.80;;;;;;5010897;27;95795;-46
2021/01/30 01:42:11;;;;;;;4.38;2.15;;;21.00;74.70;;;;;;5010688;27;95799;-46
2021/01/30 01:44:43;;;;;;;3.67;2.75;;;21.00;74.80;;;;;;5003148;27;97036;-47
2021/01/30 01:47:26;;;;;;;3.80;2.28;;;21.00;74.60;;;;;;5006375;28;96344;-47
2021/01/30 01:49:58;;;;;;;2.20;2.00;;;21.10;74.80;;;;;;5016979;27;96008;-46
2021/01/30 01:52:43;;;;;;;2.53;1.88;;;21.10;74.40;;;;;;5001639;28;95747;-45
2021/01/30 01:55:17;;;;;;;3.13;2.13;;;21.10;74.40;;;;;;4997202;27;95926;-46
2021/01/30 01:57:54;;;;;;;2.65;1.80;;;21.20;74.30;;;;;;5004687;27;95779;-45
2021/01/30 02:00:25;;;;;;;3.30;2.10;;;21.20;74.40;;;;;;5006103;27;96768;-46
2021/01/30 02:03:01;;;;;;;2.33;2.10;;;21.20;74.20;;;;;;5012321;28;95259;-43
2021/01/30 02:05:36;;;;;;;2.95;2.28;;;21.20;74.30;;;;;;5021060;27;96161;-46
2021/01/30 02:08:10;;;;;;;2.80;2.20;;;21.30;74.20;;;;;;5006815;28;98125;-46
2021/01/30 02:10:47;;;;;;;3.47;2.22;;;21.30;74.10;;;;;;5000738;27;95843;-45
2021/01/30 02:13:23;;;;;;;4.53;2.42;;;21.30;74.10;;;;;;5005269;27;95685;-45
2021/01/30 02:16:20;;;;;;;3.28;2.30;;;21.40;74.10;;;;;;4982838;27;95999;-45
2021/01/30 02:19:40;;;;;;;3.67;2.10;;;21.40;73.90;;;;;;5005783;27;96420;-46
2021/01/30 02:22:45;;;;;;;4.28;1.90;;;21.40;74.10;;;;;;5013103;27;95950;-45
2021/01/30 02:25:43;;;;;;;4.47;2.15;;;21.40;73.90;;;;;;5016280;27;96842;-45
2021/01/30 02:28:27;;;;;;;2.80;2.33;;;21.50;74.00;;;;;;5007057;27;95828;-45
2021/01/30 02:31:06;;;;;;;4.93;2.60;;;21.50;73.90;;;;;;5006727;27;96559;-47
2021/01/30 02:33:45;;;;;;;3.00;1.83;;;21.50;73.90;;;;;;5006164;27;95832;-45
2021/01/30 02:36:20;;;;;;;4.13;2.13;;;21.50;73.80;;;;;;5002213;27;95848;-45
2021/01/30 02:39:09;;;;;;;5.10;2.38;;;21.60;73.70;;;;;;4999635;28;95868;-45
2021/01/30 02:41:42;;;;;;;3.97;2.47;;;21.60;73.80;;;;;;4992734;28;95935;-45
2021/01/30 02:44:16;;;;;;;3.20;1.98;;;21.60;73.70;;;;;;5011513;28;95845;-46
2021/01/30 02:46:57;;;;;;;3.40;2.47;;;21.60;73.60;;;;;;4986250;28;96080;-46
2021/01/30 02:49:33;;;;;;;;;;;21.60;73.70;;;;;;4994002;28;96012;-44
2021/01/30 02:52:13;;;;;;;5.38;2.60;;;21.70;73.80;;;;;;4987838;28;95982;-45
2021/01/30 02:54:44;;;;;;;6.80;2.65;;;21.70;73.60;;;;;;5010589;28;96478;-46
2021/01/30 02:57:18;;;;;;;2.47;2.03;;;21.70;73.50;;;;;;5005615;28;95625;-47
2021/01/30 02:59:50;;;;;;;3.42;2.25;;;21.80;73.60;;;;;;5001184;27;96906;-45
2021/01/30 03:02:25;;;;;;;3.80;2.22;;;21.80;73.80;;;;;;4997388;28;95791;-45
2021/01/30 03:05:00;;;;;;;8.27;2.97;;;21.80;73.70;;;;;;4998764;28;95923;-46
2021/01/30 03:07:39;;;;;;;2.75;2.53;;;21.80;73.60;;;;;;5004098;27;95857;-46
2021/01/30 03:10:19;;;;;;;3.03;2.65;;;21.90;73.60;;;;;;5006037;27;96056;-45
2021/01/30 03:13:10;;;;;;;5.15;2.83;;;21.90;73.60;;;;;;5003764;27;95871;-45
2021/01/30 03:15:46;;;;;;;3.70;2.75;;;21.90;73.60;;;;;;5002254;28;95408;-46
2021/01/30 03:18:20;;;;;;;5.10;2.70;;;21.90;73.30;;;;;;5006263;27;95732;-45
2021/01/30 03:20:53;;;;;;;5.95;2.90;;;21.90;73.30;;;;;;5007820;28;95975;-45
2021/01/30 03:23:25;;;;;;;4.60;2.38;;;22.00;73.30;;;;;;4995091;27;96152;-45
2021/01/30 03:26:03;;;;;;;3.63;2.28;;;22.00;73.30;;;;;;5000315;28;96222;-45
2021/01/30 03:28:34;;;;;;;3.95;2.38;;;22.00;73.30;;;;;;5004743;28;96568;-46
2021/01/30 03:31:06;;;;;;;5.25;2.72;;;22.00;73.30;;;;;;5006334;28;96055;-46
2021/01/30 03:33:37;;;;;;;5.95;2.60;;;22.10;73.20;;;;;;5011358;28;96135;-46
2021/01/30 03:36:07;;;;;;;5.68;2.05;;;22.10;73.10;;;;;;5008622;28;95818;-45
2021/01/30 03:38:39;;;;;;;3.40;2.60;;;22.10;73.10;;;;;;5003225;27;95662;-45
2021/01/30 03:41:08;;;;;;;;;;;22.10;73.10;;;;;;5005065;28;95955;-45
2021/01/30 03:43:39;;;;;;;5.50;2.85;;;22.20;73.20;;;;;;5001660;28;95909;-47
2021/01/30 03:46:10;;;;;;;2.85;2.20;;;22.20;73.30;;;;;;4998123;28;95902;-47
2021/01/30 03:48:42;;;;;;;7.43;3.17;;;22.20;73.20;;;;;;5004488;27;95799;-47
2021/01/30 03:51:16;;;;;;;2.25;2.05;;;22.30;73.20;;;;;;5003427;28;95869;-45
2021/01/30 03:53:48;;;;;;;3.22;2.30;;;22.30;73.10;;;;;;5008213;28;95691;-49
2021/01/30 03:56:19;;;;;;;3.40;2.35;;;22.30;73.20;;;;;;5004790;27;95949;-48
2021/01/30 03:58:51;;;;;;;3.45;2.28;;;22.40;73.40;;;;;;5012477;28;95933;-49
2021/01/30 04:01:21;;;;;;;2.83;2.47;;;22.40;73.30;;;;;;5003754;28;96034;-46
2021/01/30 04:03:52;;;;;;;3.85;2.00;;;22.40;73.30;;;;;;5010857;27;95946;-48
2021/01/30 04:06:23;;;;;;;3.63;2.35;;;22.50;73.40;;;;;;5005720;27;95778;-46
2021/01/30 04:08:54;;;;;;;4.00;1.85;;;22.50;73.20;;;;;;4998945;28;96179;-46
2021/01/30 04:11:27;;;;;;;2.65;1.83;;;22.50;73.40;;;;;;5001718;27;98503;-46
2021/01/30 04:14:00;;;;;;;2.45;1.90;;;22.50;73.70;;;;;;5006972;28;96925;-45
2021/01/30 04:16:31;;;;;;;4.28;2.65;;;22.60;73.40;;;;;;5008408;28;95773;-46
2021/01/30 04:19:01;;;;;;;5.40;2.40;;;22.60;73.40;;;;;;5010491;27;95975;-45
2021/01/30 04:21:33;;;;;;;6.75;2.50;;;22.60;73.40;;;;;;5003659;28;98299;-46
2021/01/30 04:24:04;;;;;;;4.07;2.30;;;22.60;73.30;;;;;;4990466;28;96296;-45
2021/01/30 04:26:35;;;;;;;4.50;2.47;;;22.60;73.40;;;;;;5008749;27;95756;-47
2021/01/30 04:29:07;;;;;;;3.50;2.58;;;22.70;73.40;;;;;;5002480;28;95682;-47
2021/01/30 04:31:38;;;;;;;3.03;2.00;;;22.70;73.50;;;;;;4996295;27;97089;-46
2021/01/30 04:34:09;;;;;;;2.58;2.22;;;22.70;73.50;;;;;;5003933;27;95820;-46
2021/01/30 04:36:39;;;;;;;4.35;2.03;;;22.70;73.40;;;;;;5010108;28;96832;-46
2021/01/30 04:39:10;;;;;;;2.90;2.25;;;22.80;73.30;;;;;;5010002;28;95853;-45
2021/01/30 04:42:16;;;;;;;3.95;2.00;;;22.80;73.10;;;;;;5006442;27;95987;-47
2021/01/30 04:45:19;;;;;;;2.55;2.00;;;22.80;73.20;;;;;;5007570;28;95988;-46
2021/01/30 04:48:28;;;;;;;2.83;1.90;;;22.90;73.20;;;;;;4963407;28;95850;-44
2021/01/30 04:51:12;;;;;;;2.95;1.85;;;22.80;73.10;;;;;;4996272;28;97572;-46
2021/01/30 04:54:11;;;;;;;1.98;1.85;;;22.90;73.10;;;;;;5007963;28;96509;-47
2021/01/30 04:57:07;;;;;;;2.85;1.60;;;22.90;73.10;;;;;;4984332;27;95873;-46
2021/01/30 04:59:41;;;;;;;2.28;2.08;;;22.90;73.20;;;;;;5019879;28;97880;-46
2021/01/30 05:02:35;;;;;;;4.13;1.83;;;22.90;73.20;;;;;;5012088;27;97781;-45
2021/01/30 05:05:11;;;;;;;3.38;1.67;;;23.00;73.40;;;;;;5024111;27;96003;-45
2021/01/30 05:08:42;;;;;;;3.60;2.20;;;23.00;73.40;;;;;;4994000;28;96699;-46
2021/01/30 05:11:24;;;;;;;2.55;1.65;;;23.00;73.70;;;;;;4975738;28;95429;-45
2021/01/30 05:14:02;;;;;;;1.75;1.40;;;23.00;73.80;;;;;;4971114;28;95655;-45
2021/01/30 05:16:38;;;;;;;1.65;1.55;;;23.00;73.70;;;;;;4969136;28;96521;-46
2021/01/30 05:19:13;;;;;;;2.42;1.65;;;23.00;73.60;;;;;;4968448;28;96509;-47
2021/01/30 05:21:47;;;;;;;2.58;1.88;;;23.00;73.50;;;;;;4959038;28;95713;-46
2021/01/30 05:24:19;;;;;;;3.67;1.60;;;23.00;73.40;;;;;;4962780;28;96785;-48
2021/01/30 05:27:14;;;;;;;1.42;1.33;;;23.00;73.40;;;;;;4968130;28;96718;-45
2021/01/30 05:30:13;;;;;;;2.88;1.58;;;23.00;73.40;;;;;;4962950;28;96658;-45
2021/01/30 05:32:58;;;;;;;2.67;1.48;;;23.00;73.50;;;;;;4975240;28;96029;-45
2021/01/30 05:35:45;;;;;;;3.55;1.63;;;23.00;73.30;;;;;;4980876;28;95417;-46
2021/01/30 05:38:43;;;;;;;2.53;1.80;;;23.00;73.30;;;;;;4977438;28;95910;-46
2021/01/30 05:41:31;;;;;;;3.67;1.98;;;23.00;73.30;;;;;;4971984;28;96093;-45
2021/01/30 05:44:23;;;;;;;3.40;1.60;;;23.00;73.20;;;;;;4980132;28;95928;-46
2021/01/30 05:46:55;;;;;;;2.58;1.20;;;23.00;73.10;;;;;;5014173;28;95645;-45
2021/01/30 05:49:32;;;;;;;1.55;1.30;;;23.00;73.00;;;;;;5015099;27;100679;-47
2021/01/30 05:52:03;;;;;;;2.45;1.40;;;23.00;73.00;;;;;;5018768;27;95775;-48
2021/01/30 05:54:33;;;;;;;1.27;1.08;;;23.00;72.90;;;;;;5021827;27;95923;-46
2021/01/30 05:57:03;;;;;;;5.35;1.58;;;23.00;72.90;;;;;;5012609;28;97081;-46
2021/01/30 05:59:35;;;;;;;2.22;1.30;;;23.00;72.80;;;;;;5020956;27;95868;-45
2021/01/30 06:02:28;;;;;;;2.38;1.10;;;23.00;72.80;;;;;;4998763;28;95856;-46
2021/01/30 06:05:00;;;;;;;2.08;1.23;;;23.00;72.80;;;;;;5006055;27;96600;-45
2021/01/30 06:07:32;;;;;;;2.13;1.27;;;23.00;72.80;;;;;;5008386;28;95685;-45
2021/01/30 06:10:32;;;;;;;1.45;0.98;;;23.10;72.50;;;;;;5010338;27;95864;-45
2021/01/30 06:13:13;;;;;;;1.95;1.13;;;23.10;72.30;;;;;;5013855;28;95678;-45
2021/01/30 06:15:48;;;;;;;4.05;1.25;;;23.10;71.80;;;;;;5011385;27;95906;-46
2021/01/30 06:18:38;;;;;;;2.83;1.50;;;23.10;71.40;;;;;;5014411;28;95820;-46
2021/01/30 06:21:20;;;;;;;2.78;0.70;;;23.00;71.70;;;;;;5009344;27;96387;-45
2021/01/30 06:24:10;;;;;;;2.25;1.30;;;23.00;71.40;;;;;;5018481;28;95451;-45
2021/01/30 06:26:51;;;;;;;3.05;1.00;;;23.00;71.40;;;;;;5011883;27;95882;-45
2021/01/30 06:29:28;;;;;;;2.67;1.57;;;23.00;71.00;;;;;;5015235;27;95450;-46
2021/01/30 06:32:21;;;;;;;2.25;1.17;;;23.00;70.80;;;;;;5016567;27;96127;-45
2021/01/30 06:35:22;;;;;;;1.80;0.80;;;23.00;71.00;;;;;;5012266;28;95887;-45
2021/01/30 06:38:02;;;;;;;1.27;0.80;;;23.00;70.80;;;;;;5014690;27;95989;-45
2021/01/30 06:40:57;;;;;;;1.95;1.00;;;23.00;70.50;;;;;;4996151;27;95887;-45
2021/01/30 06:43:38;;;;;;;3.85;1.13;;;23.00;70.40;;;;;;5021425;28;96550;-50
2021/01/30 06:46:09;;;;;;;3.22;1.10;;;23.00;70.10;;;;;;5014208;27;95836;-45
2021/01/30 06:48:52;;;;;;;3.03;0.80;;;23.00;70.00;;;;;;5021829;28;95842;-45
2021/01/30 06:51:36;;;;;;;1.48;0.90;;;23.00;69.90;;;;;;5020303;27;95267;-44
2021/01/30 06:54:33;;;;;;;1.55;0.88;;;23.00;70.30;;;;;;5005079;28;98274;-45
2021/01/30 06:57:24;;;;;;;0.85;0.82;;;23.00;70.30;;;;;;4993799;28;98758;-45
2021/01/30 07:00:06;;;;;;;5.38;1.42;;;23.00;69.90;;;;;;5012739;28;96188;-45
2021/01/30 07:02:42;;;;;;;2.92;1.02;;;22.90;69.10;;;;;;5021257;28;104045;-44
2021/01/30 07:05:15;;;;;;;4.85;1.30;;;22.90;68.80;;;;;;5024502;28;95947;-45
2021/01/30 07:07:48;;;;;;;5.38;1.00;;;22.90;68.60;;;;;;5021199;28;95984;-46
2021/01/30 07:10:27;;;;;;;4.13;1.15;;;22.80;68.50;;;;;;5006865;28;95394;-45
2021/01/30 07:13:22;;;;;;;2.83;0.88;;;22.80;68.30;;;;;;5002912;28;95846;-44
2021/01/30 07:16:03;;;;;;;3.13;0.95;;;22.80;68.50;;;;;;5018707;28;95925;-45
2021/01/30 07:18:41;;;;;;;6.43;1.07;;;22.80;68.40;;;;;;5015521;27;95842;-44
2021/01/30 07:21:23;;;;;;;5.57;0.98;;;22.80;68.40;;;;;;5019967;27;95624;-44
2021/01/30 07:24:21;;;;;;;2.40;1.02;;;22.80;68.80;;;;;;4994524;28;95757;-44
2021/01/30 07:27:07;;;;;;;1.33;0.70;;;22.80;68.80;;;;;;5028995;27;95908;-44
2021/01/30 07:30:08;;;;;;;0.80;0.80;;;22.80;68.80;;;;;;5015029;27;95729;-45
2021/01/30 07:32:49;;;;;;;1.05;0.73;;;22.80;68.80;;;;;;5014314;27;96433;-45
2021/01/30 07:35:24;;;;;;;1.20;0.67;;;22.80;68.70;;;;;;5016236;28;95890;-44
2021/01/30 07:38:14;;;;;;;1.58;0.90;;;22.80;68.80;;;;;;5016539;27;96133;-44
2021/01/30 07:40:47;;;;;;;1.60;1.00;;;22.80;68.80;;;;;;5021101;28;96290;-45
2021/01/30 07:43:22;;;;;;;3.53;1.15;;;22.80;68.80;;;;;;5016756;27;98841;-44
2021/01/30 07:46:06;;;;;;;1.95;0.80;;;22.80;68.80;;;;;;5028611;28;95715;-44
2021/01/30 07:48:52;;;;;;;0.82;0.73;;;22.80;68.70;;;;;;5013460;27;96336;-46
2021/01/30 07:51:43;;;;;;;3.78;0.75;;;22.80;68.80;;;;;;5016679;28;95853;-45
2021/01/30 07:54:15;;;;;;;3.63;1.15;;;22.80;68.80;;;;;;5006258;27;95908;-45
2021/01/30 07:57:20;;;;;;;1.48;0.90;;;22.80;68.70;;;;;;5018447;27;95541;-45
2021/01/30 08:00:02;;;;;;;1.17;0.70;;;22.80;68.70;;;;;;5014850;27;96265;-45
2021/01/30 08:03:04;;;;;;;2.30;0.88;;;22.80;68.70;;;;;;5010879;28;95616;-44
2021/01/30 08:06:16;;;;;;;4.25;1.17;;;22.80;68.80;;;;;;5000307;28;96196;-45
2021/01/30 08:08:53;;;;;;;2.25;0.90;;;22.70;68.70;;;;;;5013320;27;96503;-45
2021/01/30 08:11:30;;;;;;;1.95;0.98;;;22.70;68.70;;;;;;5019162;28;95874;-44
2021/01/30 08:14:10;;;;;;;2.63;0.82;;;22.70;68.70;;;;;;5022828;27;95328;-44
2021/01/30 08:16:48;;;;;;;2.10;0.80;;;22.70;68.70;;;;;;5012595;27;95280;-44
2021/01/30 08:19:53;;;;;;;1.75;1.02;;;22.70;68.80;;;;;;5011876;27;95759;-44
2021/01/30 08:22:39;;;;;;;2.42;0.80;;;22.70;68.80;;;;;;5001634;28;98276;-44
2021/01/30 08:25:23;;;;;;;3.15;0.98;;;22.70;68.80;;;;;;5019629;27;95829;-44
2021/01/30 08:28:13;;;;;;;1.55;0.65;;;22.70;68.90;;;;;;4998102;28;95386;-44
2021/01/30 08:30:44;;;;;;;1.85;0.70;;;22.70;68.80;;;;;;5019851;27;95724;-44
2021/01/30 08:33:15;;;;;;;1.85;0.70;;;22.70;68.80;;;;;;5026934;28;95935;-44
2021/01/30 08:35:55;;;;;;;2.23;1.30;;;22.70;68.80;;;;;;5016612;27;95864;-43
2021/01/30 08:38:27;;;;;;;2.08;0.80;;;22.70;68.70;;;;;;5028640;28;98055;-44
2021/01/30 08:41:07;;;;;;;3.38;0.75;;;22.70;68.70;;;;;;5016736;27;95848;-43
2021/01/30 08:43:40;;;;;;;2.33;0.82;;;22.70;68.60;;;;;;5010673;27;95972;-44
2021/01/30 08:46:28;;;;;;;1.48;1.05;;;22.60;68.50;;;;;;5008048;28;95548;-44
2021/01/30 08:49:24;;;;;;;1.50;0.70;;;22.50;69.10;;;;;;5020776;28;95783;-45
2021/01/30 08:52:20;;;;;;;2.03;0.90;;;22.60;68.50;;;;;;4999753;28;96408;-45
2021/01/30 08:54:53;;;;;;;1.30;0.80;;;22.60;68.40;;;;;;5011867;28;95959;-44
2021/01/30 08:57:32;;;;;;;2.55;0.60;;;22.60;68.30;;;;;;5018745;27;95713;-44
2021/01/30 09:00:32;;;;;;;0.85;0.75;;;22.50;68.20;;;;;;5022097;28;95502;-45
2021/01/30 09:03:08;;;;;;;1.75;0.47;;;22.50;68.20;;;;;;5037037;27;95399;-45
2021/01/30 09:05:41;;;;;;;1.58;0.80;;;22.40;68.10;;;;;;5019563;28;96676;-45
2021/01/30 09:08:11;;;;;;;1.95;0.60;;;22.40;68.10;;;;;;5020054;28;96334;-45
2021/01/30 09:10:42;;;;;;;1.08;0.68;;;22.40;68.20;;;;;;5014118;28;95783;-44
2021/01/30 09:13:20;;;;;;;0.95;0.75;;;22.40;68.10;;;;;;5012380;27;95790;-44
2021/01/30 09:15:54;;;;;;;1.45;1.00;;;22.40;68.10;;;;;;4992114;28;96464;-45
2021/01/30 09:18:32;;;;;;;2.72;0.70;;;22.40;68.20;;;;;;5017983;28;96255;-44
2021/01/30 09:21:07;;;;;;;1.20;0.50;;;22.30;68.80;;;;;;5028227;28;95498;-45
2021/01/30 09:23:56;;;;;;;0.68;0.60;;;22.30;68.10;;;;;;4995113;28;95311;-45
2021/01/30 09:27:08;;;;;;;1.38;0.73;;;22.30;68.10;;;;;;5026350;27;96480;-45
2021/01/30 09:29:49;;;;;;;4.40;1.25;;;22.30;68.20;;;;;;5003844;27;95765;-44
2021/01/30 09:32:27;;;;;;;2.22;0.70;;;22.30;68.10;;;;;;4989331;28;95868;-45
2021/01/30 09:35:07;;;;;;;2.10;0.68;;;22.30;68.20;;;;;;5009816;28;95498;-45
2021/01/30 09:37:46;;;;;;;4.38;0.60;;;22.20;68.00;;;;;;5008666;27;96718;-46
2021/01/30 09:40:30;;;;;;;1.15;0.80;;;22.20;68.00;;;;;;5012174;28;97096;-45
2021/01/30 09:43:06;;;;;;;0.90;0.70;;;22.20;68.00;;;;;;4976670;28;95785;-45
2021/01/30 09:45:38;;;;;;;1.88;0.50;;;22.20;68.10;;;;;;5011846;28;95720;-45
2021/01/30 09:48:33;;;;;;;1.00;0.70;;;22.20;68.00;;;;;;4988550;27;96792;-45
2021/01/30 09:51:11;;;;;;;1.42;0.68;;;22.20;68.40;;;;;;5015851;28;95709;-46
2021/01/30 09:53:56;;;;;;;2.28;0.70;;;22.10;68.60;;;;;;4990488;28;95908;-46
2021/01/30 09:56:38;;;;;;;0.90;0.63;;;22.10;68.80;;;;;;5015468;28;95823;-44
2021/01/30 09:59:12;;;;;;;1.48;0.55;;;22.20;68.90;;;;;;5016656;27;95878;-45
2021/01/30 10:01:44;;;;;;;2.15;1.00;;;22.20;68.70;;;;;;4987876;28;96031;-44
2021/01/30 10:04:27;;;;;;;1.30;0.52;;;22.30;69.30;;;;;;5003269;28;96524;-44
2021/01/30 10:07:14;;;;;;;1.23;0.50;;;22.30;68.60;;;;;;5012277;27;95652;-45
2021/01/30 10:09:48;;;;;;;0.88;0.73;;;22.30;68.50;;;;;;5010972;27;95953;-44
2021/01/30 10:12:21;;;;;;;0.95;0.47;;;22.30;68.40;;;;;;5008818;27;95379;-45
2021/01/30 10:14:58;;;;;;;1.10;0.75;;;22.40;68.30;;;;;;5017128;27;95608;-45
2021/01/30 10:17:38;;;;;;;2.22;0.50;;;22.40;68.30;;;;;;5014169;27;95771;-45
2021/01/30 10:20:16;;;;;;;3.58;0.65;;;22.30;68.20;;;;;;5011788;27;100967;-45
2021/01/30 10:22:50;;;;;;;1.52;0.68;;;22.40;68.20;;;;;;5003189;28;97389;-44
2021/01/30 10:25:26;;;;;;;0.88;0.70;;;22.40;68.10;;;;;;5006927;27;95580;-46
2021/01/30 10:28:05;;;;;;;0.73;0.40;;;22.40;68.10;;;;;;5011442;28;95993;-45
2021/01/30 10:30:35;;;;;;;0.95;0.60;;;22.40;68.10;;;;;;5013434;27;96509;-45
2021/01/30 10:33:10;;;;;;;1.08;0.50;;;22.40;68.00;;;;;;5027965;27;95683;-45
2021/01/30 10:35:47;;;;;;;1.15;0.50;;;22.40;68.10;;;;;;5007455;27;95904;-45
2021/01/30 10:38:21;;;;;;;0.47;0.40;;;22.40;68.00;;;;;;5009008;28;95734;-45
2021/01/30 10:41:02;;;;;;;1.05;0.50;;;22.30;67.90;;;;;;5013624;28;96013;-45
2021/01/30 10:43:42;;;;;;;1.15;0.70;;;22.40;68.00;;;;;;5017205;28;95832;-45
2021/01/30 10:46:56;;;;;;;1.42;0.85;;;22.40;67.90;;;;;;5015683;27;95519;-45
2021/01/30 10:49:30;;;;;;;2.15;0.70;;;22.40;67.90;;;;;;5004690;28;96362;-45
2021/01/30 10:52:11;;;;;;;1.52;0.73;;;22.40;67.80;;;;;;5010048;27;95964;-49
2021/01/30 10:54:44;;;;;;;1.60;1.05;;;22.40;67.80;;;;;;4998029;28;98024;-46
2021/01/30 10:57:20;;;;;;;1.05;0.60;;;22.40;67.90;;;;;;4993172;28;95822;-44
2021/01/30 11:00:16;;;;;;;2.10;0.70;;;22.40;67.90;;;;;;5012351;27;95857;-45
2021/01/30 11:02:51;;;;;;;2.10;0.90;;;22.40;67.80;;;;;;4993701;28;98081;-44
2021/01/30 11:05:22;;;;;;;1.50;0.70;;;22.40;67.80;;;;;;5014746;28;95972;-45
2021/01/30 11:08:01;;;;;;;1.20;0.88;;;22.40;67.70;;;;;;4989377;28;95908;-45
2021/01/30 11:10:47;;;;;;;1.27;0.57;;;22.40;67.90;;;;;;5004605;28;95840;-44
2021/01/30 11:13:39;;;;;;;2.70;0.73;;;22.40;67.90;;;;;;5013690;28;95830;-45
2021/01/30 11:16:25;;;;;;;1.55;0.60;;;22.40;67.90;;;;;;5007181;27;96700;-45
2021/01/30 11:18:59;;;;;;;1.40;0.70;;;22.40;67.70;;;;;;5012088;27;95900;-43
2021/01/30 11:21:36;;;;;;;1.15;0.50;;;22.40;67.80;;;;;;5004987;27;96312;-43
2021/01/30 11:24:48;;;;;;;1.10;0.80;;;22.40;67.80;;;;;;5007507;28;95882;-44
2021/01/30 11:27:30;;;;;;;1.20;0.65;;;22.40;67.80;;;;;;5002814;27;96344;-43
2021/01/30 11:30:27;;;;;;;2.03;0.88;;;22.40;67.70;;;;;;5009097;28;97033;-43
2021/01/30 11:33:03;;;;;;;;;;;22.40;67.70;;;;;;5006304;27;96319;-43
2021/01/30 11:35:43;;;;;;;1.50;0.90;;;22.40;67.80;;;;;;5006607;27;95943;-45
2021/01/30 11:38:21;;;;;;;1.25;0.65;;;22.30;67.90;;;;;;5006229;27;96890;-44
2021/01/30 11:40:53;;;;;;;2.50;0.80;;;22.30;67.70;;;;;;5006815;28;96052;-44
2021/01/30 11:43:24;;;;;;;1.23;0.70;;;22.30;67.60;;;;;;4992303;28;95932;-44
2021/01/30 11:45:57;;;;;;;0.63;0.57;;;22.30;67.80;;;;;;5007207;27;95865;-43
2021/01/30 11:48:28;;;;;;;4.18;1.15;;;22.30;67.60;;;;;;4999010;27;98212;-44
2021/01/30 11:51:02;;;;;;;1.25;0.75;;;22.30;67.60;;;;;;4988455;28;95915;-45
2021/01/30 11:53:33;;;;;;;0.88;0.68;;;22.30;67.60;;;;;;5003875;28;95839;-44
2021/01/30 11:56:04;;;;;;;;;;;22.30;67.50;;;;;;4988035;28;96162;-45
2021/01/30 11:58:35;;;;;;;3.15;0.98;;;22.30;67.60;;;;;;4972578;28;98275;-45
2021/01/30 12:01:07;;;;;;;1.50;0.82;;;22.30;67.60;;;;;;5002899;28;96047;-44
2021/01/30 12:03:38;;;;;;;;;;;22.30;67.60;;;;;;5004279;27;95854;-44
2021/01/30 12:06:09;;;;;;;;;;;22.30;67.50;;;;;;5008303;27;96038;-44
2021/01/30 12:08:41;;;;;;;1.83;1.40;;;22.30;67.60;;;;;;5003022;27;96000;-45
2021/01/30 12:11:14;;;;;;;1.85;0.75;;;22.30;67.70;;;;;;5004425;28;95576;-45
2021/01/30 12:13:45;;;;;;;0.88;0.70;;;22.30;67.60;;;;;;5005045;27;95751;-44
2021/01/30 12:16:19;;;;;;;1.75;0.80;;;22.30;67.60;;;;;;5017424;27;98031;-45
2021/01/30 12:18:49;;;;;;;2.00;0.80;;;22.30;68.20;;;;;;5003098;28;95833;-45
2021/01/30 12:21:21;;;;;;;;;;;22.30;68.20;;;;;;5012026;28;96274;-43
2021/01/30 12:23:52;;;;;;;1.60;0.93;;;22.30;67.50;;;;;;5007752;28;95747;-44
2021/01/30 12:26:27;;;;;;;2.40;0.70;;;22.30;67.40;;;;;;5013217;28;98447;-43
2021/01/30 12:28:58;;;;;;;3.83;0.68;;;22.20;67.50;;;;;;5015491;27;101751;-44
2021/01/30 12:31:30;;;;;;;2.97;0.82;;;22.20;67.50;;;;;;5013889;28;95716;-43
2021/01/30 12:34:02;;;;;;;2.63;0.80;;;22.20;67.70;;;;;;5010698;28;95656;-43
2021/01/30 12:36:32;;;;;;;3.00;1.17;;;22.10;67.70;;;;;;5017731;27;96048;-43
2021/01/30 12:39:03;;;;;;;2.95;0.70;;;22.10;67.70;;;;;;5016344;28;95755;-43
2021/01/30 12:41:33;;;;;;;1.83;0.88;;;22.10;67.80;;;;;;5001887;28;96017;-44
2021/01/30 12:44:05;;;;;;;1.90;1.00;;;22.00;67.80;;;;;;5018906;28;95605;-43
2021/01/30 12:46:48;;;;;;;1.80;0.77;;;22.10;67.90;;;;;;5024401;27;96084;-42
2021/01/30 12:49:20;;;;;;;1.65;1.02;;;22.10;67.80;;;;;;5017390;28;95998;-44
2021/01/30 12:51:52;;;;;;;2.28;0.88;;;22.00;67.80;;;;;;4990924;28;96072;-44
2021/01/30 12:54:24;;;;;;;3.20;0.90;;;22.00;67.80;;;;;;5021682;28;95693;-45
2021/01/30 12:56:55;;;;;;;2.83;0.98;;;22.00;67.90;;;;;;5014993;28;96462;-44
2021/01/30 12:59:25;;;;;;;2.42;0.70;;;22.00;67.90;;;;;;5019026;28;95876;-44
2021/01/30 13:01:56;;;;;;;4.30;1.27;;;22.00;67.90;;;;;;5015928;27;95694;-44
2021/01/30 13:04:26;;;;;;;1.65;0.65;;;22.00;67.90;;;;;;5017996;28;95775;-44
2021/01/30 13:06:57;;;;;;;;;;;22.00;68.00;;;;;;5014257;28;95909;-45
2021/01/30 13:09:29;;;;;;;2.40;1.00;;;21.90;67.90;;;;;;5026154;28;95810;-44
2021/01/30 13:12:00;;;;;;;1.10;1.00;;;21.90;68.10;;;;;;5015209;27;95347;-45
2021/01/30 13:14:30;;;;;;;2.87;0.80;;;21.90;68.10;;;;;;5014758;27;95588;-45
2021/01/30 13:17:01;;;;;;;1.85;0.75;;;21.90;68.10;;;;;;5012767;27;95932;-44
2021/01/30 13:19:33;;;;;;;1.38;0.75;;;21.90;68.10;;;;;;5022564;28;95369;-45
2021/01/30 13:22:05;;;;;;;3.70;0.80;;;21.90;68.10;;;;;;4992693;28;95616;-45
2021/01/30 13:24:36;;;;;;;2.90;1.45;;;21.90;68.20;;;;;;5013682;28;98015;-45
2021/01/30 13:27:08;;;;;;;1.40;0.75;;;21.80;68.10;;;;;;5015201;27;95862;-46
2021/01/30 13:29:40;;;;;;;2.38;0.80;;;21.80;68.20;;;;;;4999503;28;95679;-44
2021/01/30 13:32:12;;;;;;;1.48;0.57;;;21.80;68.20;;;;;;5015493;27;97778;-45
2021/01/30 13:34:44;;;;;;;1.65;0.80;;;21.80;68.30;;;;;;5016911;27;95982;-44
2021/01/30 13:37:31;;;;;;;2.13;1.38;;;21.70;68.20;;;;;;5017030;28;95917;-45
2021/01/30 13:40:03;;;;;;;1.45;0.65;;;21.70;68.30;;;;;;5008398;28;95930;-45
2021/01/30 13:42:33;;;;;;;2.53;0.95;;;21.70;68.30;;;;;;5017729;27;95310;-44
2021/01/30 13:45:03;;;;;;;1.67;0.68;;;21.70;68.40;;;;;;5022703;28;95763;-43
2021/01/30 13:47:33;;;;;;;2.67;1.45;;;21.70;68.30;;;;;;4995367;28;95999;-45